»·PEaware :: N679DW KPDX-KSEA

N679DW :: KPDX-KSEA

FLIGHT INFORMATION

Flight Status: Arrived
Operator: Privately registered:
United States
More flights under this callsign
Pilot: David Dixon (7607)
Aircraft: CESSNA 172 SKYHAWK
(C172)
More flights by this aircraft type
Origin: KPDX Portland Intl
United States
Destination: KSEA Seattle-Tacoma Intl
United States
More flights between these airports :: More routes between these airports
Route: +BTG V495 SEA
File this flight plan on PilotEdge
Remarks:
Altitude:
(Current/Filed)
9,000ft
Speed:
(Current/Filed)
110kts
Departed: 19-Jun-17 12:40 PM
Arrived: 19-Jun-17 02:03 PM
Distance/Time
Traveled:
112nm/1:23
Distance/Time
To Go:
Arrived

Flight Plot

Page will automatically refresh every two minutes.

Flight plan parsing failed; only flown route is shown


Map Options




Map Legend


Flown Route
Filed Route
Departure Airport
Arrival Airport
Navaid (VOR, NDB)
Fix

Horizontal Profiles

Position Reports

Time Latitude Longitude Heading Altitude Ground
Speed
19-Jun-17 12:30 45.587611 -122.584006 210 20ft 0kts
19-Jun-17 12:31 45.587611 -122.584006 210 20ft 0kts
19-Jun-17 12:32 45.587611 -122.584006 210 20ft 0kts
19-Jun-17 12:33 45.587611 -122.584006 210 20ft 0kts
19-Jun-17 12:34 45.587611 -122.584006 210 20ft 0kts
19-Jun-17 12:35 45.587611 -122.584006 210 20ft 0kts
19-Jun-17 12:36 45.587611 -122.584006 210 20ft 0kts
19-Jun-17 12:37 45.587748 -122.583961 73 20ft 5kts
19-Jun-17 12:38 45.588008 -122.581560 104 20ft 3kts
19-Jun-17 12:39 45.586233 -122.576979 116 20ft 24kts
19-Jun-17 12:40 45.583440 -122.569717 119 20ft 30kts
19-Jun-17 12:41 45.582760 -122.567419 61 21ft 0kts
19-Jun-17 12:42 45.582763 -122.567414 62 21ft 0kts
19-Jun-17 12:43 45.586978 -122.575328 295 137ft 79kts
19-Jun-17 12:44 45.596175 -122.599119 294 762ft 97kts
19-Jun-17 12:45 45.605300 -122.625001 294 1655ft 85kts
19-Jun-17 12:46 45.613212 -122.650805 294 2469ft 82kts
19-Jun-17 12:47 45.627340 -122.652505 28 3213ft 79kts
19-Jun-17 12:48 45.643992 -122.641401 16 3766ft 93kts
19-Jun-17 12:49 45.663387 -122.631765 16 4355ft 95kts
19-Jun-17 12:50 45.678839 -122.624205 15 4999ft 83kts
19-Jun-17 12:51 45.696668 -122.615649 15 5536ft 95kts
19-Jun-17 12:52 45.717178 -122.605800 15 6012ft 103kts
19-Jun-17 12:53 45.738386 -122.595631 15 6529ft 101kts
19-Jun-17 12:54 45.759418 -122.589551 2 7075ft 97kts
19-Jun-17 12:55 45.780139 -122.586028 1 7622ft 94kts
19-Jun-17 12:56 45.800325 -122.582685 1 8168ft 91kts
19-Jun-17 12:57 45.820383 -122.579403 1 8733ft 87kts
19-Jun-17 12:58 45.842607 -122.575876 3 9386ft 80kts
19-Jun-17 12:59 45.861958 -122.569209 15 9095ft 60kts
19-Jun-17 13:00 45.883691 -122.558649 20 9191ft 112kts
19-Jun-17 13:01 45.905672 -122.567260 259 9604ft 68kts
19-Jun-17 13:02 45.892339 -122.580393 208 8948ft 77kts
19-Jun-17 13:03 45.879368 -122.597230 274 8731ft 84kts
19-Jun-17 13:04 45.899386 -122.613375 350 9034ft 116kts
19-Jun-17 13:05 45.929903 -122.600111 23 9025ft 132kts
19-Jun-17 13:06 45.959867 -122.581524 20 9024ft 124kts
19-Jun-17 13:07 45.989631 -122.564723 19 9024ft 125kts
19-Jun-17 13:08 46.019570 -122.548238 18 9024ft 125kts
19-Jun-17 13:09 46.051247 -122.541817 3 9024ft 124kts
19-Jun-17 13:10 46.082674 -122.536531 2 9024ft 124kts
19-Jun-17 13:11 46.112213 -122.531645 2 9021ft 123kts
19-Jun-17 13:12 46.142827 -122.526609 2 9021ft 123kts
19-Jun-17 13:13 46.173493 -122.521568 2 9021ft 123kts
19-Jun-17 13:14 46.203876 -122.516377 357 9022ft 124kts
19-Jun-17 13:15 46.234328 -122.511511 357 9025ft 121kts
19-Jun-17 13:16 46.263550 -122.506715 357 9023ft 122kts
19-Jun-17 13:17 46.293011 -122.501867 357 9023ft 123kts
19-Jun-17 13:18 46.322446 -122.497001 357 9023ft 124kts
19-Jun-17 13:19 46.352684 -122.492007 357 9023ft 124kts
19-Jun-17 13:20 46.383542 -122.486902 357 9023ft 124kts
19-Jun-17 13:21 46.413995 -122.481851 357 9023ft 124kts
19-Jun-17 13:22 46.444166 -122.476835 357 9023ft 124kts
19-Jun-17 13:23 46.473834 -122.471907 357 9023ft 124kts
19-Jun-17 13:24 46.503565 -122.466962 357 9024ft 124kts
19-Jun-17 13:25 46.531834 -122.462202 357 9021ft 122kts
19-Jun-17 13:26 46.558371 -122.457829 357 8971ft 126kts
19-Jun-17 13:27 46.584490 -122.453457 357 8969ft 125kts
19-Jun-17 13:28 46.609903 -122.449208 357 8979ft 123kts
19-Jun-17 13:29 46.637884 -122.444532 357 8995ft 124kts
19-Jun-17 13:30 46.666530 -122.439740 357 8996ft 124kts
19-Jun-17 13:31 46.695165 -122.434939 357 8996ft 124kts
19-Jun-17 13:32 46.723614 -122.430168 357 8996ft 124kts
19-Jun-17 13:33 46.751942 -122.425411 357 8997ft 124kts
19-Jun-17 13:34 46.780185 -122.420669 357 8997ft 124kts
19-Jun-17 13:35 46.807452 -122.416146 358 8994ft 122kts
19-Jun-17 13:36 46.833115 -122.411768 357 8997ft 124kts
19-Jun-17 13:37 46.865328 -122.406364 358 8512ft 129kts
19-Jun-17 13:38 46.890109 -122.402155 359 8017ft 122kts
19-Jun-17 13:39 46.912799 -122.398237 0 7546ft 119kts
19-Jun-17 13:40 46.935265 -122.390143 17 7065ft 120kts
19-Jun-17 13:41 46.957447 -122.377813 17 6580ft 120kts
19-Jun-17 13:42 46.979475 -122.365944 17 6097ft 119kts
19-Jun-17 13:43 47.000749 -122.354779 17 5629ft 118kts
19-Jun-17 13:44 47.021132 -122.344226 18 5178ft 118kts
19-Jun-17 13:45 47.041613 -122.333730 17 4996ft 112kts
19-Jun-17 13:46 47.061400 -122.323542 18 5000ft 112kts
19-Jun-17 13:47 47.080994 -122.319986 2 4997ft 109kts
19-Jun-17 13:48 47.100974 -122.318310 358 5001ft 110kts
19-Jun-17 13:49 47.121769 -122.316669 0 4998ft 111kts
19-Jun-17 13:50 47.142615 -122.314918 1 4994ft 107kts
19-Jun-17 13:51 47.163164 -122.313213 359 5000ft 109kts
19-Jun-17 13:52 47.184345 -122.311811 357 4859ft 115kts
19-Jun-17 13:53 47.206685 -122.310228 352 4495ft 114kts
19-Jun-17 13:54 47.229134 -122.310033 0 4090ft 111kts
19-Jun-17 13:55 47.250904 -122.309767 356 3715ft 108kts
19-Jun-17 13:56 47.272421 -122.309729 2 3328ft 109kts
19-Jun-17 13:56 47.290140 -122.309627 356 2987ft 100kts
19-Jun-17 13:57 47.309609 -122.309081 352 2576ft 89kts
19-Jun-17 13:59 47.329752 -122.309123 1 2197ft 79kts
19-Jun-17 14:00 47.345573 -122.309017 4 1895ft 81kts
19-Jun-17 14:01 47.363132 -122.308684 3 1592ft 86kts
19-Jun-17 14:01 47.378449 -122.308455 6 1314ft 86kts
19-Jun-17 14:02 47.397166 -122.308630 3 971ft 86kts
19-Jun-17 14:03 47.415157 -122.308347 1 742ft 78kts
19-Jun-17 14:04 47.428598 -122.308215 5 447ft 62kts
19-Jun-17 14:05 47.438070 -122.307584 55 361ft 22kts
19-Jun-17 14:06 47.438109 -122.306955 105 363ft 0kts

Navigation Log

Ident Type
Flight plan parsing failed, navigation log unavailable